createdAt,value
2023-04-25T00:00:01.615Z,6.3
2023-04-25T00:01:01.230Z,6.4
2023-04-25T00:02:00.866Z,6.5
2023-04-25T00:03:01.507Z,6.5
2023-04-25T00:04:01.216Z,6.5
2023-04-25T00:05:01.724Z,6.5
2023-04-25T00:06:01.506Z,6.5
2023-04-25T00:07:00.906Z,6.5
2023-04-25T00:08:01.476Z,6.5
2023-04-25T00:09:01.074Z,6.6
2023-04-25T00:10:01.662Z,6.5
2023-04-25T00:11:01.250Z,6.6
2023-04-25T00:12:00.871Z,6.6
2023-04-25T00:13:01.430Z,6.7
2023-04-25T00:14:01.096Z,6.6
2023-04-25T00:15:01.616Z,6.6
2023-04-25T00:16:01.267Z,6.6
2023-04-25T00:17:00.843Z,6.6
2023-04-25T00:18:01.442Z,6.6
2023-04-25T00:19:01.137Z,6.6
2023-04-25T00:20:01.743Z,6.6
2023-04-25T00:21:01.367Z,6.6
2023-04-25T00:22:00.923Z,6.6
2023-04-25T00:23:01.510Z,6.6
2023-04-25T00:24:01.088Z,6.6
2023-04-25T00:25:02.014Z,6.7
2023-04-25T00:26:01.598Z,6.7
2023-04-25T00:27:00.906Z,6.6
2023-04-25T00:28:01.499Z,6.6
2023-04-25T00:29:01.085Z,6.6
2023-04-25T00:30:01.673Z,6.6
2023-04-25T00:31:01.276Z,6.6
2023-04-25T00:32:00.897Z,6.6
2023-04-25T00:33:01.509Z,6.6
2023-04-25T00:34:01.101Z,6.6
2023-04-25T00:35:00.705Z,6.6
2023-04-25T00:36:01.254Z,6.6
2023-04-25T00:37:00.870Z,6.5
2023-04-25T00:38:01.467Z,6.6
2023-04-25T00:39:01.164Z,6.6
2023-04-25T00:40:01.659Z,6.6
2023-04-25T00:41:01.265Z,6.6
2023-04-25T00:42:00.851Z,6.6
2023-04-25T00:43:01.446Z,6.5
2023-04-25T00:44:01.040Z,6.6
2023-04-25T00:45:01.607Z,6.6
2023-04-25T00:46:01.218Z,6.5
2023-04-25T00:47:00.937Z,6.5
2023-04-25T00:48:01.487Z,6.5
2023-04-25T00:49:01.033Z,6.5
2023-04-25T00:50:01.603Z,6.5
2023-04-25T00:51:01.209Z,6.6
2023-04-25T00:52:00.966Z,6.6
2023-04-25T00:53:01.383Z,6.6
2023-04-25T00:54:01.037Z,6.6
2023-04-25T00:55:01.566Z,6.6
2023-04-25T00:56:01.158Z,6.6
2023-04-25T00:57:00.741Z,6.6
2023-04-25T00:58:01.328Z,6.6
2023-04-25T00:59:00.944Z,6.6
2023-04-25T01:00:01.851Z,6.5
2023-04-25T01:01:01.221Z,6.5
2023-04-25T01:02:00.757Z,6.5
2023-04-25T01:03:01.608Z,6.5
2023-04-25T01:04:01.095Z,6.6
2023-04-25T01:05:01.559Z,6.5
2023-04-25T01:06:01.145Z,6.6
2023-04-25T01:07:00.812Z,6.6
2023-04-25T01:08:01.333Z,6.6
2023-04-25T01:09:00.946Z,6.6
2023-04-25T01:10:01.546Z,6.6
2023-04-25T01:11:01.217Z,6.5
2023-04-25T01:12:01.024Z,6.5
2023-04-25T01:13:01.308Z,6.6
2023-04-25T01:14:00.927Z,6.6
2023-04-25T01:15:01.522Z,6.6
2023-04-25T01:16:01.112Z,6.6
2023-04-25T01:17:01.108Z,6.6
2023-04-25T01:18:01.289Z,6.5
2023-04-25T01:19:00.901Z,6.6
2023-04-25T01:20:01.513Z,6.6
2023-04-25T01:21:01.141Z,6.7
2023-04-25T01:22:00.990Z,6.6
2023-04-25T01:23:01.296Z,6.5
2023-04-25T01:24:00.879Z,6.5
2023-04-25T01:25:01.469Z,6.5
2023-04-25T01:26:01.285Z,6.5
2023-04-25T01:27:01.689Z,6.3
2023-04-25T01:28:01.282Z,6.3
2023-04-25T01:29:00.873Z,6.3
2023-04-25T01:30:01.457Z,6.2
2023-04-25T01:31:01.044Z,6.2
2023-04-25T01:32:01.661Z,6.2
2023-04-25T01:33:01.330Z,6.1
2023-04-25T01:34:00.970Z,6.1
2023-04-25T01:35:01.469Z,6.1
2023-04-25T01:36:01.086Z,6.2
2023-04-25T01:37:01.655Z,6.1
2023-04-25T01:38:01.248Z,6.1
2023-04-25T01:39:00.848Z,6.1
2023-04-25T01:40:01.533Z,6.2
2023-04-25T01:41:01.099Z,6.2
2023-04-25T01:42:01.749Z,6.3
2023-04-25T01:43:01.348Z,6.3
2023-04-25T01:44:00.910Z,6.3
2023-04-25T01:45:01.469Z,6.3
2023-04-25T01:46:01.064Z,6.3
2023-04-25T01:47:01.647Z,6.3
2023-04-25T01:48:01.313Z,6.3
2023-04-25T01:49:00.901Z,6.3
2023-04-25T01:50:01.476Z,6.3
2023-04-25T01:51:01.104Z,6.3
2023-04-25T01:52:01.650Z,6.3
2023-04-25T01:53:01.239Z,6.3
2023-04-25T01:54:01.205Z,6.3
2023-04-25T01:55:01.423Z,6.3
2023-04-25T01:56:01.089Z,6.3
2023-04-25T01:57:01.602Z,6.3
2023-04-25T01:58:01.227Z,6.3
2023-04-25T01:59:00.827Z,6.3
2023-04-25T02:00:01.383Z,6.3
2023-04-25T02:01:01.127Z,6.4
2023-04-25T02:02:01.550Z,6.4
2023-04-25T02:03:01.292Z,6.4
2023-04-25T02:04:01.244Z,6.4
2023-04-25T02:05:01.110Z,6.3
2023-04-25T02:06:01.023Z,6.3
2023-04-25T02:07:01.301Z,6.3
2023-04-25T02:08:01.042Z,6.3
2023-04-25T02:09:01.472Z,6.3
2023-04-25T02:10:01.057Z,6.3
2023-04-25T02:11:01.664Z,6.3
2023-04-25T02:12:01.290Z,6.3
2023-04-25T02:13:00.882Z,6.3
2023-04-25T02:14:01.457Z,6.3
2023-04-25T02:15:01.047Z,6.4
2023-04-25T02:16:01.659Z,6.3
2023-04-25T02:17:01.358Z,6.3
2023-04-25T02:18:01.103Z,6.3
2023-04-25T02:19:01.414Z,6.3
2023-04-25T02:20:01.002Z,6.4
2023-04-25T02:21:01.572Z,6.3
2023-04-25T02:22:01.195Z,6.4
2023-04-25T02:23:00.952Z,6.4
2023-04-25T02:24:01.317Z,6.4
2023-04-25T02:25:00.942Z,6.4
2023-04-25T02:26:01.497Z,6.3
2023-04-25T02:27:01.144Z,6.3
2023-04-25T02:28:01.668Z,6.3
2023-04-25T02:29:01.258Z,6.3
2023-04-25T02:30:00.899Z,6.3
2023-04-25T02:31:01.432Z,6.3
2023-04-25T02:32:01.083Z,6.3
2023-04-25T02:33:01.645Z,6.3
2023-04-25T02:34:01.253Z,6.3
2023-04-25T02:35:00.896Z,6.3
2023-04-25T02:36:01.427Z,6.3
2023-04-25T02:37:01.072Z,6.3
2023-04-25T02:38:01.611Z,6.3
2023-04-25T02:39:01.211Z,6.3
2023-04-25T02:40:01.210Z,6.3
2023-04-25T02:41:01.349Z,6.3
2023-04-25T02:42:00.964Z,6.3
2023-04-25T02:43:01.532Z,6.4
2023-04-25T02:44:01.123Z,6.3
2023-04-25T02:45:01.157Z,6.3
2023-04-25T02:46:01.335Z,6.2
2023-04-25T02:47:00.936Z,6.2
2023-04-25T02:48:01.546Z,6.2
2023-04-25T02:49:01.143Z,6.2
2023-04-25T02:50:01.214Z,6.3
2023-04-25T02:51:00.911Z,6.3
2023-04-25T02:52:01.505Z,6.3
2023-04-25T02:53:01.126Z,6.2
2023-04-25T02:54:01.672Z,6.2
2023-04-25T02:55:01.282Z,6.2
2023-04-25T02:56:01.044Z,6.2
2023-04-25T02:57:01.451Z,6.2
2023-04-25T02:58:01.076Z,6.2
2023-04-25T02:59:01.612Z,6.2
2023-04-25T03:00:01.230Z,6.2
2023-04-25T03:01:01.122Z,6.2
2023-04-25T03:02:01.432Z,6.2
2023-04-25T03:03:01.298Z,6.3
2023-04-25T03:04:01.604Z,6.2
2023-04-25T03:05:01.208Z,6.3
2023-04-25T03:06:01.030Z,6.2
2023-04-25T03:07:01.357Z,6.2
2023-04-25T03:08:00.980Z,6.2
2023-04-25T03:09:01.522Z,6.2
2023-04-25T03:10:01.121Z,6.2
2023-04-25T03:11:01.079Z,6.2
2023-04-25T03:12:01.313Z,6.2
2023-04-25T03:13:00.968Z,6.2
2023-04-25T03:14:01.525Z,6.2
2023-04-25T03:15:01.120Z,6.2
2023-04-25T03:16:00.949Z,6.1
2023-04-25T03:17:01.414Z,6.1
2023-04-25T03:18:01.200Z,6.1
2023-04-25T03:19:01.507Z,6.2
2023-04-25T03:20:01.218Z,6.2
2023-04-25T03:21:00.680Z,6.2
2023-04-25T03:22:01.271Z,6.1
2023-04-25T03:23:00.861Z,6.1
2023-04-25T03:24:01.446Z,6.1
2023-04-25T03:25:01.442Z,6.1
2023-04-25T03:26:01.626Z,6.1
2023-04-25T03:27:01.240Z,6.1
2023-04-25T03:28:00.837Z,6.1
2023-04-25T03:29:01.416Z,6
2023-04-25T03:30:01.255Z,6
2023-04-25T03:31:01.590Z,6.1
2023-04-25T03:32:01.240Z,6.1
2023-04-25T03:33:00.777Z,6.1
2023-04-25T03:34:01.351Z,6.1
2023-04-25T03:35:00.940Z,6.1
2023-04-25T03:36:01.520Z,6.1
2023-04-25T03:37:01.531Z,6.2
2023-04-25T03:38:00.697Z,6.2
2023-04-25T03:39:01.311Z,6.2
2023-04-25T03:40:00.920Z,6.2
2023-04-25T03:41:01.583Z,6.1
2023-04-25T03:42:01.253Z,6.2
2023-04-25T03:43:00.729Z,6.2
2023-04-25T03:44:01.358Z,6.2
2023-04-25T03:45:00.934Z,6.2
2023-04-25T03:46:01.537Z,6.3
2023-04-25T03:47:01.599Z,6.3
2023-04-25T03:48:00.778Z,6.2
2023-04-25T03:49:01.327Z,6.3
2023-04-25T03:50:00.938Z,6.2
2023-04-25T03:51:01.495Z,6.3
2023-04-25T03:52:01.361Z,6.3
2023-04-25T03:53:01.675Z,6.1
2023-04-25T03:54:01.305Z,5.4
2023-04-25T03:55:00.900Z,4.9
2023-04-25T03:56:01.485Z,4.5
2023-04-25T03:57:01.241Z,4
2023-04-25T03:58:01.688Z,4
2023-04-25T03:59:01.287Z,4
2023-04-25T04:00:00.890Z,4.1
2023-04-25T04:01:01.451Z,4.1
2023-04-25T04:02:01.313Z,4.2
2023-04-25T04:03:01.711Z,4.3
2023-04-25T04:04:01.588Z,4.3
2023-04-25T04:05:01.100Z,4.3
2023-04-25T04:06:01.468Z,4.3
2023-04-25T04:07:01.366Z,4.3
2023-04-25T04:08:01.656Z,4.3
2023-04-25T04:09:01.530Z,4.3
2023-04-25T04:10:00.895Z,4.3
2023-04-25T04:11:01.458Z,4.3
2023-04-25T04:12:01.317Z,4.3
2023-04-25T04:13:01.632Z,4.3
2023-04-25T04:14:01.378Z,4.3
2023-04-25T04:15:00.897Z,4.3
2023-04-25T04:16:01.490Z,4.3
2023-04-25T04:17:01.419Z,4.3
2023-04-25T04:18:00.730Z,4.3
2023-04-25T04:19:01.309Z,4.3
2023-04-25T04:20:00.936Z,4.3
2023-04-25T04:21:01.476Z,4.3
2023-04-25T04:22:01.422Z,4.2
2023-04-25T04:23:01.653Z,4.2
2023-04-25T04:24:01.389Z,4.2
2023-04-25T04:25:00.902Z,4.2
2023-04-25T04:26:01.462Z,4.2
2023-04-25T04:27:01.076Z,4.3
2023-04-25T04:28:01.629Z,4.3
2023-04-25T04:29:01.395Z,4.3
2023-04-25T04:30:00.903Z,4.3
2023-04-25T04:31:01.498Z,4.3
2023-04-25T04:32:01.320Z,4.3
2023-04-25T04:33:01.733Z,4.3
2023-04-25T04:34:01.358Z,4.3
2023-04-25T04:35:00.953Z,4.3
2023-04-25T04:36:01.485Z,4.4
2023-04-25T04:37:01.079Z,4.5
2023-04-25T04:38:01.692Z,4.4
2023-04-25T04:39:01.664Z,4.4
2023-04-25T04:40:00.908Z,4.4
2023-04-25T04:41:01.564Z,4.4
2023-04-25T04:42:01.316Z,4.4
2023-04-25T04:43:01.674Z,4.4
2023-04-25T04:44:01.409Z,4.4
2023-04-25T04:45:00.895Z,4.4
2023-04-25T04:46:01.483Z,4.5
2023-04-25T04:47:01.565Z,4.5
2023-04-25T04:48:01.428Z,4.6
2023-04-25T04:49:01.060Z,4.5
2023-04-25T04:50:01.663Z,4.5
2023-04-25T04:51:01.339Z,4.6
2023-04-25T04:52:00.887Z,4.6
2023-04-25T04:53:01.654Z,4.6
2023-04-25T04:54:01.515Z,4.5
2023-04-25T04:55:01.684Z,4.6
2023-04-25T04:56:01.518Z,4.6
2023-04-25T04:57:00.919Z,4.6
2023-04-25T04:58:01.515Z,4.5
2023-04-25T04:59:01.125Z,4.5
2023-04-25T05:00:01.676Z,4.5
2023-04-25T05:01:01.452Z,4.5
2023-04-25T05:02:00.910Z,4.5
2023-04-25T05:03:01.671Z,4.5
2023-04-25T05:04:02.088Z,4.5
2023-04-25T05:05:00.961Z,4.6
2023-04-25T05:06:01.570Z,4.5
2023-04-25T05:07:00.957Z,4.6
2023-04-25T05:08:01.677Z,4.6
2023-04-25T05:09:01.451Z,4.6
2023-04-25T05:10:00.803Z,4.7
2023-04-25T05:11:01.394Z,4.7
2023-04-25T05:12:00.981Z,4.7
2023-04-25T05:13:01.567Z,4.8
2023-04-25T05:14:01.592Z,4.8
2023-04-25T05:15:00.746Z,4.8
2023-04-25T05:16:01.403Z,4.9
2023-04-25T05:17:01.006Z,4.9
2023-04-25T05:18:01.726Z,4.9
2023-04-25T05:19:01.504Z,4.9
2023-04-25T05:20:00.802Z,5
2023-04-25T05:21:01.486Z,5
2023-04-25T05:22:01.046Z,5.1
2023-04-25T05:23:01.755Z,5.1
2023-04-25T05:24:01.477Z,5.1
2023-04-25T05:25:00.872Z,5.1
2023-04-25T05:26:01.573Z,5.1
2023-04-25T05:27:01.081Z,5.2
2023-04-25T05:28:01.697Z,5.2
2023-04-25T05:29:01.409Z,5.2
2023-04-25T05:30:00.907Z,5.2
2023-04-25T05:31:01.484Z,5.2
2023-04-25T05:32:01.121Z,5.2
2023-04-25T05:33:01.713Z,5.3
2023-04-25T05:34:01.722Z,5.3
2023-04-25T05:35:00.937Z,5.4
2023-04-25T05:36:01.477Z,5.4
2023-04-25T05:37:01.075Z,5.3
2023-04-25T05:38:01.677Z,5.3
2023-04-25T05:39:01.477Z,5.3
2023-04-25T05:40:00.882Z,5.5
2023-04-25T05:41:01.789Z,5.4
2023-04-25T05:42:01.730Z,5.5
2023-04-25T05:43:01.519Z,5.5
2023-04-25T05:44:01.137Z,5.6
2023-04-25T05:45:00.752Z,5.5
2023-04-25T05:46:01.442Z,5.5
2023-04-25T05:47:01.019Z,5.6
2023-04-25T05:48:01.625Z,5.5
2023-04-25T05:49:01.414Z,5.6
2023-04-25T05:50:00.820Z,5.6
2023-04-25T05:51:01.631Z,5.6
2023-04-25T05:52:01.069Z,5.7
2023-04-25T05:53:01.694Z,5.7
2023-04-25T05:54:01.354Z,5.8
2023-04-25T05:55:00.895Z,5.8
2023-04-25T05:56:01.867Z,5.8
2023-04-25T05:57:01.133Z,5.8
2023-04-25T05:58:00.740Z,5.8
2023-04-25T05:59:01.316Z,5.9
2023-04-25T06:00:01.081Z,5.9
2023-04-25T06:01:01.925Z,6
2023-04-25T06:02:01.167Z,6
2023-04-25T06:03:00.861Z,6
2023-04-25T06:04:01.550Z,5.8
2023-04-25T06:05:01.207Z,5.9
2023-04-25T06:06:01.582Z,6.1
2023-04-25T06:07:01.199Z,6.2
2023-04-25T06:08:00.779Z,6.3
2023-04-25T06:09:01.368Z,6.3
2023-04-25T06:10:00.982Z,6.3
2023-04-25T06:11:01.545Z,6.2
2023-04-25T06:12:01.132Z,6
2023-04-25T06:13:00.720Z,6.2
2023-04-25T06:14:01.332Z,6.3
2023-04-25T06:15:00.994Z,6.3
2023-04-25T06:16:01.529Z,6.2
2023-04-25T06:17:01.144Z,6.2
2023-04-25T06:18:00.791Z,6.2
2023-04-25T06:19:01.301Z,6.1
2023-04-25T06:20:00.887Z,6
2023-04-25T06:21:01.493Z,6
2023-04-25T06:22:01.117Z,6
2023-04-25T06:23:01.702Z,6.2
2023-04-25T06:24:01.304Z,6.2
2023-04-25T06:25:00.901Z,6.1
2023-04-25T06:26:01.478Z,6.1
2023-04-25T06:27:01.092Z,6.1
2023-04-25T06:28:01.656Z,6.2
2023-04-25T06:29:01.256Z,6.2
2023-04-25T06:30:00.885Z,6.2
2023-04-25T06:31:01.478Z,6.2
2023-04-25T06:32:01.117Z,6.4
2023-04-25T06:33:01.720Z,6.4
2023-04-25T06:34:01.724Z,6.4
2023-04-25T06:35:00.923Z,6.4
2023-04-25T06:36:01.513Z,6.6
2023-04-25T06:37:01.116Z,6.7
2023-04-25T06:38:00.701Z,6.5
2023-04-25T06:39:01.304Z,6.7
2023-04-25T06:40:00.913Z,6.6
2023-04-25T06:41:01.501Z,6.6
2023-04-25T06:42:01.109Z,6.6
2023-04-25T06:43:00.771Z,6.5
2023-04-25T06:44:01.283Z,6.6
2023-04-25T06:45:00.879Z,6.6
2023-04-25T06:46:01.489Z,6.7
2023-04-25T06:47:01.102Z,6.8
2023-04-25T06:48:01.687Z,6.9
2023-04-25T06:49:01.329Z,6.8
2023-04-25T06:50:00.916Z,6.9
2023-04-25T06:51:01.492Z,6.8
2023-04-25T06:52:01.083Z,7
2023-04-25T06:53:01.669Z,7.1
2023-04-25T06:54:01.343Z,7
2023-04-25T06:55:00.911Z,7.2
2023-04-25T06:56:01.502Z,7.2
2023-04-25T06:57:01.108Z,7.2
2023-04-25T06:58:01.672Z,7.2
2023-04-25T06:59:01.270Z,7.1
2023-04-25T07:00:02.378Z,7.1
2023-04-25T07:01:01.236Z,7
2023-04-25T07:02:00.906Z,7
2023-04-25T07:03:01.566Z,7
2023-04-25T07:04:01.311Z,7
2023-04-25T07:05:00.772Z,7
2023-04-25T07:06:01.288Z,7.1
2023-04-25T07:07:00.901Z,7
2023-04-25T07:08:01.473Z,6.9
2023-04-25T07:09:01.141Z,7
2023-04-25T07:10:00.745Z,7.1
2023-04-25T07:11:01.312Z,6.9
2023-04-25T07:12:00.910Z,6.9
2023-04-25T07:13:01.541Z,7.3
2023-04-25T07:14:01.156Z,7.2
2023-04-25T07:15:00.736Z,7.3
2023-04-25T07:16:01.309Z,7.4
2023-04-25T07:17:00.982Z,7.3
2023-04-25T07:18:01.572Z,7.4
2023-04-25T07:19:01.170Z,7.6
2023-04-25T07:20:01.315Z,7.8
2023-04-25T07:21:00.955Z,8
2023-04-25T07:22:01.547Z,8
2023-04-25T07:23:01.138Z,8.3
2023-04-25T07:24:00.732Z,8.2
2023-04-25T07:25:01.374Z,8.4
2023-04-25T07:26:00.981Z,8.5
2023-04-25T07:27:01.565Z,8.6
2023-04-25T07:28:01.158Z,8.4
2023-04-25T07:29:00.749Z,8.3
2023-04-25T07:30:01.346Z,8.3
2023-04-25T07:31:00.988Z,8.4
2023-04-25T07:32:01.561Z,8.5
2023-04-25T07:33:01.202Z,8.5
2023-04-25T07:34:01.962Z,8.5
2023-04-25T07:35:00.816Z,8.5
2023-04-25T07:36:01.417Z,8.6
2023-04-25T07:37:01.591Z,8.3
2023-04-25T07:38:01.192Z,8.2
2023-04-25T07:39:00.781Z,8.2
2023-04-25T07:40:01.382Z,8.2
2023-04-25T07:41:01.001Z,8.1
2023-04-25T07:42:01.579Z,8.1
2023-04-25T07:43:01.227Z,8
2023-04-25T07:44:00.762Z,8.1
2023-04-25T07:45:01.363Z,8
2023-04-25T07:46:00.980Z,8
2023-04-25T07:47:03.892Z,8.1
2023-04-25T07:48:01.170Z,8.2
2023-04-25T07:49:00.782Z,8.2
2023-04-25T07:50:01.413Z,8
2023-04-25T07:51:01.005Z,8
2023-04-25T07:52:01.607Z,8.1
2023-04-25T07:53:01.225Z,8.3
2023-04-25T07:54:00.805Z,8.3
2023-04-25T07:55:01.407Z,8.4
2023-04-25T07:56:00.999Z,8.6
2023-04-25T07:57:01.588Z,8.5
2023-04-25T07:58:01.250Z,8.4
2023-04-25T07:59:00.835Z,8.5
2023-04-25T08:00:01.437Z,8.4
2023-04-25T08:01:01.069Z,8.5
2023-04-25T08:02:01.615Z,8.7
2023-04-25T08:03:01.294Z,8.9
2023-04-25T08:04:01.095Z,8.8
2023-04-25T08:05:01.580Z,8.8
2023-04-25T08:06:02.807Z,8.7
2023-04-25T08:07:01.650Z,8.7
2023-04-25T08:08:01.262Z,8.6
2023-04-25T08:09:00.862Z,8.6
2023-04-25T08:10:01.472Z,8.7
2023-04-25T08:11:01.088Z,8.6
2023-04-25T08:12:01.703Z,8.6
2023-04-25T08:13:01.333Z,8.5
2023-04-25T08:14:00.917Z,8.6
2023-04-25T08:15:01.516Z,8.6
2023-04-25T08:16:01.125Z,8.7
2023-04-25T08:17:01.698Z,8.8
2023-04-25T08:18:01.346Z,8.9
2023-04-25T08:19:00.944Z,8.9
2023-04-25T08:20:01.541Z,8.8
2023-04-25T08:21:01.157Z,8.8
2023-04-25T08:22:00.771Z,8.8
2023-04-25T08:23:01.353Z,8.8
2023-04-25T08:24:00.955Z,8.7
2023-04-25T08:25:01.538Z,9.1
2023-04-25T08:26:01.182Z,9.3
2023-04-25T08:27:00.747Z,9.4
2023-04-25T08:28:01.320Z,9.3
2023-04-25T08:29:00.919Z,9.4
2023-04-25T08:30:01.480Z,9.3
2023-04-25T08:31:01.129Z,9.2
2023-04-25T08:32:01.664Z,9.3
2023-04-25T08:33:01.314Z,9.4
2023-04-25T08:34:00.906Z,9.3
2023-04-25T08:35:01.497Z,9.3
2023-04-25T08:36:01.114Z,9
2023-04-25T08:37:01.679Z,8.9
2023-04-25T08:38:01.369Z,8.9
2023-04-25T08:39:00.914Z,8.9
2023-04-25T08:40:01.498Z,9.1
2023-04-25T08:41:01.148Z,9.1
2023-04-25T08:42:01.694Z,9.2
2023-04-25T08:43:01.557Z,9.2
2023-04-25T08:44:00.990Z,9.2
2023-04-25T08:45:02.239Z,9.1
2023-04-25T08:46:01.581Z,9.2
2023-04-25T08:47:00.777Z,9.3
2023-04-25T08:48:01.350Z,9.3
2023-04-25T08:49:00.997Z,9.3
2023-04-25T08:50:01.628Z,9.2
2023-04-25T08:51:01.236Z,9.2
2023-04-25T08:52:00.800Z,9.2
2023-04-25T08:53:01.373Z,9.1
2023-04-25T08:54:06.947Z,9.2
2023-04-25T08:55:01.507Z,9.4
2023-04-25T08:56:01.150Z,9.7
2023-04-25T08:57:01.703Z,9.8
2023-04-25T08:58:01.299Z,9.7
2023-04-25T08:59:00.889Z,9.3
2023-04-25T09:00:01.478Z,9.1
2023-04-25T09:01:01.133Z,9.2
2023-04-25T09:02:01.757Z,9.5
2023-04-25T09:03:01.648Z,9.8
2023-04-25T09:04:01.539Z,9.8
2023-04-25T09:05:01.195Z,9.8
2023-04-25T09:06:00.803Z,9.7
2023-04-25T09:07:01.385Z,9.5
2023-04-25T09:08:01.000Z,9.5
2023-04-25T09:09:01.644Z,9.6
2023-04-25T09:10:01.276Z,9.8
2023-04-25T09:11:00.816Z,9.8
2023-04-25T09:12:01.397Z,9.6
2023-04-25T09:13:00.983Z,9.7
2023-04-25T09:14:01.595Z,9.8
2023-04-25T09:15:01.187Z,9.9
2023-04-25T09:16:00.797Z,9.9
2023-04-25T09:17:01.446Z,9.9
2023-04-25T09:18:01.019Z,9.5
2023-04-25T09:19:01.622Z,9.5
2023-04-25T09:20:01.235Z,9.5
2023-04-25T09:21:02.221Z,9.5
2023-04-25T09:22:01.340Z,9.6
2023-04-25T09:23:00.928Z,9.6
2023-04-25T09:24:01.541Z,9.4
2023-04-25T09:25:01.154Z,9.3
2023-04-25T09:26:00.778Z,9.3
2023-04-25T09:27:01.304Z,9
2023-04-25T09:28:00.896Z,8.9
2023-04-25T09:29:01.483Z,8.8
2023-04-25T09:30:01.102Z,9
2023-04-25T09:31:01.658Z,9.2
2023-04-25T09:32:01.279Z,9.3
2023-04-25T09:33:00.982Z,9.5
2023-04-25T09:34:01.750Z,9.5
2023-04-25T09:35:01.152Z,9.8
2023-04-25T09:36:00.768Z,9.9
2023-04-25T09:37:01.314Z,9.8
2023-04-25T09:38:00.908Z,9.7
2023-04-25T09:39:01.492Z,9.7
2023-04-25T09:40:01.092Z,9.8
2023-04-25T09:41:01.705Z,9.9
2023-04-25T09:42:01.487Z,9.9
2023-04-25T09:43:00.932Z,10.1
2023-04-25T09:44:01.795Z,10.2
2023-04-25T09:45:01.232Z,10.4
2023-04-25T09:46:00.838Z,10.5
2023-04-25T09:47:01.363Z,10.5
2023-04-25T09:48:00.990Z,10.7
2023-04-25T09:49:01.539Z,10.5
2023-04-25T09:50:01.125Z,10.4
2023-04-25T09:51:00.713Z,10.2
2023-04-25T09:52:01.332Z,10.3
2023-04-25T09:53:00.927Z,10.3
2023-04-25T09:54:01.498Z,10.2
2023-04-25T09:55:01.140Z,10
2023-04-25T09:56:01.664Z,10
2023-04-25T09:57:01.352Z,9.9
2023-04-25T09:58:00.955Z,9.9
2023-04-25T09:59:01.489Z,9.9
2023-04-25T10:00:01.091Z,9.9
2023-04-25T10:01:01.694Z,9.8
2023-04-25T10:02:01.399Z,9.7
2023-04-25T10:03:00.974Z,9.8
2023-04-25T10:04:01.657Z,10
2023-04-25T10:05:01.147Z,10.1
2023-04-25T10:06:00.717Z,10.1
2023-04-25T10:07:01.321Z,10
2023-04-25T10:08:00.963Z,10.2
2023-04-25T10:09:01.548Z,10.6
2023-04-25T10:10:01.159Z,11.1
2023-04-25T10:11:00.729Z,11.2
2023-04-25T10:12:01.311Z,11.4
2023-04-25T10:13:00.928Z,11.1
2023-04-25T10:14:01.535Z,10.9
2023-04-25T10:15:01.122Z,10.7
2023-04-25T10:16:00.739Z,10.5
2023-04-25T10:17:01.301Z,10.4
2023-04-25T10:18:00.922Z,10.4
2023-04-25T10:19:01.476Z,10.2
2023-04-25T10:20:01.095Z,10.3
2023-04-25T10:21:01.651Z,10.4
2023-04-25T10:22:01.240Z,10.5
2023-04-25T10:23:00.849Z,10.6
2023-04-25T10:24:01.414Z,10.4
2023-04-25T10:25:01.009Z,10.6
2023-04-25T10:26:01.609Z,10.6
2023-04-25T10:27:01.199Z,10.4
2023-04-25T10:28:00.795Z,10.3
2023-04-25T10:29:01.364Z,10.2
2023-04-25T10:30:00.989Z,10.1
2023-04-25T10:31:01.656Z,10
2023-04-25T10:32:01.214Z,9.7
2023-04-25T10:33:00.799Z,9.8
2023-04-25T10:34:01.409Z,9.8
2023-04-25T10:35:01.010Z,9.6
2023-04-25T10:36:01.595Z,9.5
2023-04-25T10:37:01.208Z,9.3
2023-04-25T10:38:00.795Z,9.3
2023-04-25T10:39:01.362Z,9.2
2023-04-25T10:40:00.957Z,9.1
2023-04-25T10:41:01.542Z,9.1
2023-04-25T10:42:01.147Z,9.1
2023-04-25T10:43:00.719Z,9
2023-04-25T10:44:01.315Z,9
2023-04-25T10:45:00.962Z,8.9
2023-04-25T10:46:01.678Z,8.8
2023-04-25T10:47:01.269Z,8.8
2023-04-25T10:48:00.786Z,8.8
2023-04-25T10:49:01.327Z,8.8
2023-04-25T10:50:00.977Z,8.7
2023-04-25T10:51:01.575Z,8.7
2023-04-25T10:52:01.186Z,8.6
2023-04-25T10:53:00.775Z,8.5
2023-04-25T10:54:01.334Z,8.4
2023-04-25T10:55:00.930Z,8.4
2023-04-25T10:56:01.515Z,7.3
2023-04-25T10:57:01.141Z,7.4
2023-04-25T10:58:01.689Z,7.5
2023-04-25T10:59:01.291Z,7.6
2023-04-25T11:00:00.880Z,7.8
2023-04-25T11:01:01.465Z,8
2023-04-25T11:02:01.221Z,8.1
2023-04-25T11:03:01.702Z,8.2
2023-04-25T11:04:01.498Z,8.2
2023-04-25T11:05:00.908Z,8.4
2023-04-25T11:06:01.483Z,8.5
2023-04-25T11:07:06.293Z,8.6
2023-04-25T11:08:07.515Z,8.6
2023-04-25T11:09:01.171Z,8.6
2023-04-25T11:10:00.766Z,8.4
2023-04-25T11:11:01.342Z,8.2
2023-04-25T11:12:00.948Z,8.3
2023-04-25T11:13:01.535Z,8.3
2023-04-25T11:14:01.139Z,8.5
2023-04-25T11:15:00.722Z,8.8
2023-04-25T11:16:07.036Z,8.8
2023-04-25T11:17:01.274Z,8.9
2023-04-25T11:18:02.244Z,8.8
2023-04-25T11:19:00.997Z,8.7
2023-04-25T11:20:01.590Z,8.8
2023-04-25T11:21:01.178Z,9
2023-04-25T11:22:00.911Z,9.2
2023-04-25T11:23:01.389Z,9.3
2023-04-25T11:24:01.002Z,9.3
2023-04-25T11:25:01.583Z,9.5
2023-04-25T11:26:01.208Z,9.7
2023-04-25T11:27:00.777Z,10
2023-04-25T11:28:01.365Z,10.1
2023-04-25T11:29:00.978Z,10.2
2023-04-25T11:30:01.560Z,9.8
2023-04-25T11:31:01.148Z,9.8
2023-04-25T11:32:00.753Z,9.7
2023-04-25T11:33:01.359Z,9.9
2023-04-25T11:34:01.021Z,10
2023-04-25T11:35:01.595Z,10
2023-04-25T11:36:01.192Z,9.9
2023-04-25T11:37:00.809Z,10.1
2023-04-25T11:38:01.364Z,9.9
2023-04-25T11:39:01.008Z,9.8
2023-04-25T11:40:01.550Z,9.7
2023-04-25T11:41:01.277Z,9.5
2023-04-25T11:42:01.968Z,9.5
2023-04-25T11:43:00.765Z,9.5
2023-04-25T11:44:01.374Z,9.5
2023-04-25T11:45:01.554Z,9.5
2023-04-25T11:46:01.230Z,9.3
2023-04-25T11:47:00.738Z,9.1
2023-04-25T11:48:01.354Z,9.1
2023-04-25T11:49:00.996Z,9.1
2023-04-25T11:50:01.820Z,9.3
2023-04-25T11:51:01.275Z,9.6
2023-04-25T11:52:00.816Z,9.9
2023-04-25T11:53:01.397Z,9.5
2023-04-25T11:54:00.995Z,9.4
2023-04-25T11:55:01.578Z,9.6
2023-04-25T11:56:01.199Z,9.7
2023-04-25T11:57:00.805Z,9.8
2023-04-25T11:58:01.392Z,9.8
2023-04-25T11:59:01.001Z,9.8
2023-04-25T12:00:01.582Z,9.8
2023-04-25T12:01:01.199Z,10
2023-04-25T12:02:01.098Z,10.2
2023-04-25T12:03:01.579Z,10.3
2023-04-25T12:04:01.187Z,10.2
2023-04-25T12:05:12.001Z,10.2
2023-04-25T12:06:01.506Z,10.2
2023-04-25T12:07:00.890Z,10.3
2023-04-25T12:08:01.416Z,10.3
2023-04-25T12:09:01.036Z,10.2
2023-04-25T12:10:01.583Z,10.1
2023-04-25T12:11:01.181Z,10
2023-04-25T12:12:00.763Z,10
2023-04-25T12:13:01.344Z,10.2
2023-04-25T12:14:01.026Z,10.4
2023-04-25T12:15:01.572Z,10.7
2023-04-25T12:16:01.199Z,11.2
2023-04-25T12:17:00.776Z,11.2
2023-04-25T12:18:01.342Z,10.9
2023-04-25T12:19:00.976Z,11
2023-04-25T12:20:01.579Z,11
2023-04-25T12:21:01.191Z,11.3
2023-04-25T12:22:00.888Z,11.3
2023-04-25T12:23:01.373Z,11.2
2023-04-25T12:24:00.978Z,11.1
2023-04-25T12:25:01.609Z,11.3
2023-04-25T12:26:01.223Z,11.2
2023-04-25T12:27:00.802Z,11.2
2023-04-25T12:28:01.380Z,10.9
2023-04-25T12:29:00.977Z,11
2023-04-25T12:30:01.569Z,10.8
2023-04-25T12:31:01.277Z,10.8
2023-04-25T12:32:00.849Z,11
2023-04-25T12:33:01.453Z,10.7
2023-04-25T12:34:01.055Z,10.6
2023-04-25T12:35:01.641Z,10.5
2023-04-25T12:36:01.556Z,10.5
2023-04-25T12:37:00.890Z,10.5
2023-04-25T12:38:01.503Z,10.3
2023-04-25T12:39:01.095Z,10.3
2023-04-25T12:40:01.728Z,10.3
2023-04-25T12:41:01.395Z,10.4
2023-04-25T12:42:00.905Z,10.7
2023-04-25T12:43:01.492Z,10.6
2023-04-25T12:44:01.113Z,10.6
2023-04-25T12:45:01.684Z,10.3
2023-04-25T12:46:01.279Z,10.3
2023-04-25T12:47:01.069Z,10.1
2023-04-25T12:48:03.461Z,10.2
2023-04-25T12:49:08.426Z,10.2
2023-04-25T12:50:01.550Z,10.3
2023-04-25T12:51:01.137Z,10.4
2023-04-25T12:52:00.756Z,10.5
2023-04-25T12:53:01.321Z,10.5
2023-04-25T12:54:00.995Z,10.3
2023-04-25T12:55:01.523Z,10.2
2023-04-25T12:56:01.226Z,10.2
2023-04-25T12:57:01.706Z,10.3
2023-04-25T12:58:01.312Z,10.2
2023-04-25T12:59:00.920Z,10.2
2023-04-25T13:00:01.536Z,10.3
2023-04-25T13:01:01.272Z,10.2
2023-04-25T13:02:01.778Z,10.1
2023-04-25T13:03:01.470Z,10
2023-04-25T13:04:01.035Z,10
2023-04-25T13:05:01.556Z,10
2023-04-25T13:06:01.161Z,9.8
2023-04-25T13:07:00.752Z,9.8
2023-04-25T13:08:01.314Z,9.8
2023-04-25T13:09:00.899Z,9.8
2023-04-25T13:10:01.547Z,9.9
2023-04-25T13:11:01.116Z,9.9
2023-04-25T13:12:01.715Z,9.8
2023-04-25T13:13:01.325Z,9.8
2023-04-25T13:14:00.912Z,9.9
2023-04-25T13:15:01.511Z,10.1
2023-04-25T13:16:01.133Z,10.1
2023-04-25T13:17:01.821Z,10.4
2023-04-25T13:18:01.551Z,10.6
2023-04-25T13:19:00.937Z,10.5
2023-04-25T13:20:01.521Z,10.8
2023-04-25T13:21:01.108Z,10.9
2023-04-25T13:22:01.718Z,11.2
2023-04-25T13:23:02.673Z,10.9
2023-04-25T13:24:01.403Z,11
2023-04-25T13:25:01.515Z,11.3
2023-04-25T13:26:01.126Z,11.4
2023-04-25T13:27:01.691Z,11.4
2023-04-25T13:28:01.308Z,11.7
2023-04-25T13:29:00.945Z,11.5
2023-04-25T13:30:01.510Z,11.1
2023-04-25T13:31:01.102Z,11.1
2023-04-25T13:32:01.710Z,10.6
2023-04-25T13:33:01.397Z,10.4
2023-04-25T13:34:00.961Z,10.1
2023-04-25T13:35:03.706Z,9.8
2023-04-25T13:36:01.080Z,9.7
2023-04-25T13:37:01.669Z,9.6
2023-04-25T13:38:01.364Z,9.6
2023-04-25T13:39:00.929Z,9.5
2023-04-25T13:40:01.482Z,9.3
2023-04-25T13:41:01.141Z,8.9
2023-04-25T13:42:01.860Z,8.7
2023-04-25T13:43:01.448Z,8.6
2023-04-25T13:44:00.993Z,8.4
2023-04-25T13:45:01.557Z,8.6